Data for 02/16/2007

Time Sea-Level Adjusted Pressure Absolute Pressure Temperature Relative Humidity Dew Point   
(mb) (inHg) (mb) (inHg) (C) (F) (%) (C) (F)
00:05 1010 29.83 839 24.78 6.1 42.9 59 -1.3 29.6
00:10 1010 29.83 839 24.78 6.1 43 60 -1.2 29.9
00:15 1010 29.83 839 24.78 5.9 42.7 61 -1.1 30.1
00:20 1010 29.83 839 24.78 5.8 42.4 61 -1.2 29.9
00:25 1010 29.83 839 24.78 5.7 42.3 61 -1.1 30
00:30 1010 29.83 839 24.78 5.7 42.2 59 -1.6 29.1
00:35 1010 29.83 839 24.78 5.8 42.4 60 -1.4 29.5
00:40 1010 29.83 839 24.78 5.7 42.3 61 -1.1 30
00:45 1010 29.83 839 24.78 5.6 42.1 62 -1.1 30
00:50 1010 29.83 840 24.81 5.7 42.2 61 -1.2 29.8
00:55 1010 29.83 840 24.81 5.7 42.3 58 -1.8 28.7
01:00 1010 29.83 839 24.78 5.9 42.7 56 -2.2 28
01:05 1010 29.83 840 24.81 6.1 43.1 54 -2.5 27.4
01:10 1010 29.83 840 24.81 6.1 43.1 54 -2.4 27.8
01:15 1010 29.83 840 24.81 6.2 43.1 54 -2.5 27.5
01:20 1010 29.83 840 24.81 6.1 43.1 52 -3 26.6
01:25 1010 29.83 840 24.81 6.1 42.9 52 -3.2 26.3
01:30 1010 29.83 840 24.81 5.9 42.6 54 -2.8 27
01:35 1011 29.85 840 24.81 5.6 42 53 -3.2 26.2
01:40 1011 29.85 840 24.81 5.5 42 54 -3.1 26.4
01:45 1011 29.85 840 24.81 5.3 41.6 55 -3.1 26.5
01:50 1011 29.85 840 24.81 5.5 41.9 50 -4 24.7
01:55 1011 29.85 840 24.81 5.6 42.1 48 -4.7 23.6
02:00 1011 29.85 840 24.81 5.5 41.9 48 -4.7 23.6
02:05 1011 29.85 840 24.81 5.2 41.4 47 -5.1 22.9
02:10 1011 29.85 840 24.81 5.4 41.8 41 -6.6 20
02:15 1011 29.85 840 24.81 5.9 42.6 40 -6.6 20.1
02:20 1011 29.85 840 24.81 5.8 42.4 41 -6.4 20.5
02:25 1011 29.85 841 24.83 5.5 42 42 -6.4 20.5
02:30 1011 29.85 841 24.83 5.5 41.8 40 -7.1 19.3
02:35 1011 29.85 841 24.83 5.4 41.7 41 -6.8 19.8
02:40 1012 29.88 841 24.83 5.3 41.5 43 -6.2 20.8
02:45 1012 29.88 841 24.83 4.9 40.9 45 -6.1 21
02:50 1012 29.88 841 24.83 4.9 40.8 45 -6 21.2
02:55 1012 29.88 841 24.83 4.9 40.7 46 -5.9 21.4
03:00 1012 29.88 841 24.83 4.9 40.8 45 -6.1 21
03:05 1012 29.88 841 24.83 4.8 40.6 45 -6.2 20.8
03:10 1012 29.88 841 24.83 4.8 40.6 45 -6.3 20.6
03:15 1012 29.88 841 24.83 4.7 40.4 45 -6.1 21
03:20 1012 29.88 842 24.86 4.6 40.4 46 -6.1 21
03:25 1013 29.91 842 24.86 4.6 40.3 46 -5.9 21.3
03:30 1013 29.91 842 24.86 4.4 40 47 -5.9 21.4
03:35 1013 29.91 842 24.86 4.3 39.7 49 -5.6 21.9
03:40 1012 29.88 842 24.86 4.2 39.5 50 -5.4 22.4
03:45 1013 29.91 842 24.86 4.1 39.4 50 -5.4 22.3
03:50 1013 29.91 842 24.86 4.1 39.4 52 -4.8 23.3
03:55 1013 29.91 842 24.86 3.9 39.1 53 -4.7 23.6
04:00 1013 29.91 842 24.86 3.8 38.8 54 -4.8 23.4
04:05 1014 29.94 843 24.89 3.8 38.9 55 -4.5 23.9
04:10 1014 29.94 843 24.89 3.6 38.4 61 -3.3 26.1
04:15 1014 29.94 843 24.89 3.1 37.5 67 -2.5 27.5
04:20 1014 29.94 843 24.89 2.7 36.8 72 -2 28.4
04:25 1014 29.94 843 24.89 2.1 35.8 77 -1.4 29.5
04:30 1015 29.97 844 24.92 1.8 35.2 79 -1.5 29.4
04:35 1015 29.97 844 24.92 1.7 35 79 -1.6 29
04:40 1015 29.97 844 24.92 1.8 35.2 78 -1.6 29.2
04:45 1015 29.97 844 24.92 1.8 35.3 77 -1.8 28.8
04:50 1015 29.97 844 24.92 1.9 35.4 72 -2.6 27.4
04:55 1015 29.97 844 24.92 2.1 35.8 70 -2.8 27
05:00 1015 29.97 844 24.92 2.3 36.1 67 -3.2 26.3
05:05 1015 29.97 844 24.92 2.4 36.4 66 -3.2 26.2
05:10 1015 29.97 845 24.95 2.4 36.3 67 -3.2 26.3
05:15 1015 29.97 845 24.95 2.3 36.1 66 -3.4 25.8
05:20 1016 30 845 24.95 2.3 36.1 65 -3.7 25.4
05:25 1016 30 845 24.95 2.4 36.3 64 -3.7 25.3
05:30 1016 30 845 24.95 2.4 36.3 65 -3.5 25.6
05:35 1016 30 845 24.95 2.3 36.1 66 -3.4 26
05:40 1016 30 845 24.95 2.2 36 67 -3.3 26
05:45 1016 30 845 24.95 2.2 35.9 67 -3.4 25.9
05:50 1016 30 846 24.98 2.2 35.9 67 -3.4 25.9
05:55 1016 30 846 24.98 2.1 35.8 68 -3.3 26.1
06:00 1017 30.03 846 24.98 2 35.6 67 -3.4 25.9
06:05 1016 30 846 24.98 1.9 35.5 66 -3.8 25.1
06:10 1016 30 846 24.98 2 35.6 65 -3.9 25
06:15 1016 30 846 24.98 1.9 35.5 66 -3.8 25.2
06:20 1017 30.03 846 24.98 1.8 35.2 66 -4 24.9
06:25 1016 30 846 24.98 1.8 35.2 63 -4.5 23.9
06:30 1016 30 846 24.98 1.8 35.2 63 -4.4 24
06:35 1016 30 846 24.98 1.7 35 64 -4.4 24.2
06:40 1017 30.03 846 24.98 1.4 34.6 66 -4.2 24.4
06:45 1017 30.03 846 24.98 1.2 34.2 66 -4.4 24.1
06:50 1017 30.03 846 24.98 1.1 34 67 -4.4 24.1
06:55 1017 30.03 846 24.98 1.1 34 64 -4.9 23.2
07:00 1017 30.03 846 24.98 1.3 34.3 62 -5.2 22.6
07:05 1017 30.03 847 25.01 1.3 34.3 63 -5 22.9
07:10 1017 30.03 847 25.01 1.2 34.1 64 -4.9 23.2
07:15 1018 30.06 847 25.01 1 33.7 64 -5 22.9
07:20 1018 30.06 847 25.01 1 33.8 62 -5.4 22.3
07:25 1018 30.06 847 25.01 1.1 33.9 61 -5.7 21.7
07:30 1018 30.06 847 25.01 1.1 33.9 60 -5.8 21.6
07:35 1018 30.06 847 25.01 1.1 33.9 60 -5.9 21.3
07:40 1018 30.06 847 25.01 1 33.9 59 -6 21.1
07:45 1018 30.06 847 25.01 1 33.8 58 -6.3 20.7
07:50 1018 30.06 847 25.01 1 33.9 59 -6.1 21
07:55 1018 30.06 848 25.04 1 33.8 60 -6 21.2
08:00 1018 30.06 848 25.04 0.9 33.7 59 -6.1 21
08:05 1018 30.06 848 25.04 0.9 33.6 59 -6.3 20.7
08:10 1019 30.09 848 25.04 1 33.8 60 -5.9 21.3
08:15 1019 30.09 848 25.04 0.9 33.6 61 -5.8 21.6
08:20 1019 30.09 848 25.04 0.9 33.6 61 -5.8 21.5
08:25 1019 30.09 848 25.04 0.9 33.6 61 -5.8 21.6
08:30 1019 30.09 848 25.04 0.9 33.7 60 -5.9 21.4
08:35 1019 30.09 848 25.04 1.1 34 59 -6.1 21
08:40 1019 30.09 848 25.04 1.1 34 58 -6.3 20.6
08:45 1019 30.09 848 25.04 1.2 34.1 56 -6.6 20.1
08:50 1019 30.09 848 25.04 1.2 34.1 55 -6.8 19.7
08:55 1019 30.09 849 25.07 1.3 34.3 53 -7.2 19.1
09:00 1019 30.09 849 25.07 1.4 34.5 54 -7 19.5
09:05 1019 30.09 849 25.07 1.4 34.5 53 -7.2 19
09:10 1019 30.09 848 25.04 1.5 34.7 53 -7 19.3
09:15 1019 30.09 849 25.07 1.4 34.6 54 -6.9 19.6
09:20 1020 30.12 849 25.07 1.5 34.7 54 -6.8 19.8
09:25 1020 30.12 849 25.07 1.4 34.5 53 -7.2 19.1
09:30 1020 30.12 849 25.07 1.4 34.6 53 -7.1 19.3
09:35 1020 30.12 849 25.07 1.5 34.6 53 -7 19.3
09:40 1020 30.12 849 25.07 1.4 34.5 53 -7.2 19
09:45 1020 30.12 849 25.07 1.5 34.6 52 -7.5 18.5
09:50 1020 30.12 849 25.07 1.5 34.6 52 -7.4 18.7
09:55 1020 30.12 849 25.07 1.7 35 52 -7.2 19.1
10:00 1020 30.12 849 25.07 1.9 35.5 50 -7.4 18.7
10:05 1020 30.12 849 25.07 1.9 35.5 51 -7.3 18.9
10:10 1020 30.12 849 25.07 2 35.6 49 -7.7 18.1
10:15 1020 30.12 849 25.07 2.1 35.9 47 -8.2 17.3
10:20 1020 30.12 849 25.07 2.2 36 46 -8.1 17.3
10:25 1020 30.12 849 25.07 2.4 36.3 47 -7.8 18
10:30 1020 30.12 850 25.1 2.5 36.6 46 -8 17.6
10:35 1020 30.12 850 25.1 2.6 36.7 46 -7.7 18.1
10:40 1020 30.12 850 25.1 2.7 36.9 46 -7.9 17.7
10:45 1020 30.12 850 25.1 2.8 37 46 -7.8 17.9
10:50 1021 30.15 850 25.1 3 37.3 45 -8 17.6
10:55 1021 30.15 850 25.1 2.9 37.3 46 -7.6 18.3
11:00 1021 30.15 850 25.1 3.1 37.5 43 -8.3 17.1
11:05 1021 30.15 850 25.1 3.2 37.8 44 -8 17.6
11:10 1021 30.15 850 25.1 3.1 37.6 44 -8.1 17.4
11:15 1021 30.15 850 25.1 3.1 37.7 44 -7.9 17.8
11:20 1021 30.15 850 25.1 3.4 38.1 44 -7.7 18.1
11:25 1021 30.15 850 25.1 3.5 38.2 42 -8.3 17.1
11:30 1021 30.15 850 25.1 3.6 38.5 41 -8.3 17
11:35 1021 30.15 850 25.1 3.7 38.7 42 -8.1 17.5
11:40 1021 30.15 850 25.1 3.7 38.7 43 -7.9 17.9
11:45 1021 30.15 850 25.1 4 39.1 42 -7.9 17.7
11:50 1021 30.15 850 25.1 3.8 38.8 43 -7.7 18.1
11:55 1021 30.15 850 25.1 3.7 38.6 43 -7.6 18.2
12:00 1021 30.15 850 25.1 3.6 38.5 42 -8.2 17.2
12:05 1021 30.15 850 25.1 3.6 38.6 41 -8.5 16.8
12:10 1021 30.15 850 25.1 3.8 38.8 41 -8.2 17.2
12:15 1021 30.15 850 25.1 3.6 38.4 41 -8.6 16.6
12:20 1021 30.15 850 25.1 3.8 38.8 40 -8.6 16.6
12:25 1021 30.15 850 25.1 4.1 39.3 39 -8.7 16.4
12:30 1021 30.15 850 25.1 3.7 38.7 41 -8.5 16.7
12:35 1021 30.15 850 25.1 3.6 38.4 40 -8.9 15.9
12:40 1021 30.15 850 25.1 3.6 38.5 39 -9 15.8
12:45 1021 30.15 851 25.13 3.8 38.8 41 -8.3 17
12:50 1021 30.15 851 25.13 3.9 39 41 -8.1 17.3
12:55 1021 30.15 850 25.1 3.8 38.9 43 -7.8 18
13:00 1021 30.15 851 25.13 3.9 38.9 41 -8.1 17.4
13:05 1021 30.15 851 25.13 3.9 39 42 -7.8 17.9
13:10 1021 30.15 851 25.13 3.9 39 44 -7.4 18.6
13:15 1022 30.18 851 25.13 3.9 39 43 -7.6 18.2
13:20 1022 30.18 851 25.13 3.9 39.1 40 -8.4 16.9
13:25 1022 30.18 851 25.13 3.6 38.5 41 -8.3 17
13:30 1022 30.18 851 25.13 4 39.2 40 -8.5 16.7
13:35 1022 30.18 851 25.13 4 39.2 41 -8.1 17.5
13:40 1022 30.18 851 25.13 3.8 38.9 41 -8.2 17.3
13:45 1022 30.18 851 25.13 3.7 38.7 42 -8 17.5
13:50 1022 30.18 851 25.13 3.9 39 41 -8.1 17.4
13:55 1022 30.18 851 25.13 3.8 38.9 42 -8.1 17.5
14:00 1022 30.18 851 25.13 3.8 38.8 41 -8.3 17
14:05 1022 30.18 851 25.13 3.6 38.5 44 -7.7 18.2
14:10 1022 30.18 851 25.13 3.5 38.3 43 -7.8 17.9
14:15 1022 30.18 851 25.13 3.6 38.6 40 -8.7 16.4
14:20 1022 30.18 851 25.13 4.3 39.7 39 -8.5 16.7
14:25 1022 30.18 851 25.13 4.6 40.2 40 -7.8 17.9
14:30 1022 30.18 851 25.13 4.3 39.7 42 -7.5 18.5
14:35 1022 30.18 851 25.13 4.4 39.8 41 -7.7 18.1
14:40 1022 30.18 851 25.13 4.7 40.5 41 -7.3 18.9
14:45 1022 30.18 851 25.13 4.5 40.2 41 -7.4 18.6
14:50 1022 30.18 851 25.13 4.2 39.6 44 -7 19.4
14:55 1022 30.18 851 25.13 4.2 39.6 42 -7.7 18.1
15:00 1022 30.18 851 25.13 4.8 40.7 40 -7.7 18.2
15:05 1022 30.18 851 25.13 5 41 41 -7.1 19.3
15:10 1022 30.18 851 25.13 4.7 40.5 41 -7.5 18.6
15:15 1022 30.18 851 25.13 4.5 40.2 40 -7.9 17.8
15:20 1022 30.18 851 25.13 4.3 39.8 42 -7.6 18.4
15:25 1022 30.18 851 25.13 4.2 39.5 42 -7.7 18.2
15:30 1022 30.18 851 25.13 4.1 39.3 43 -7.5 18.4
15:35 1022 30.18 852 25.16 4.1 39.4 43 -7.5 18.6
15:40 1022 30.18 852 25.16 4 39.2 43 -7.5 18.5
15:45 1022 30.18 852 25.16 3.8 38.8 44 -7.3 18.8
15:50 1022 30.18 852 25.16 3.7 38.7 43 -7.6 18.3
15:55 1022 30.18 852 25.16 3.6 38.6 43 -7.8 18
16:00 1022 30.18 852 25.16 3.7 38.6 44 -7.5 18.5
16:05 1022 30.18 852 25.16 3.7 38.7 44 -7.5 18.4
16:10 1023 30.21 852 25.16 3.7 38.6 44 -7.3 18.8
16:15 1023 30.21 852 25.16 3.6 38.4 45 -7.2 19.1
16:20 1023 30.21 852 25.16 3.4 38.1 46 -7.1 19.2
16:25 1023 30.21 852 25.16 3.6 38.5 46 -7.1 19.3
16:30 1023 30.21 852 25.16 3.5 38.3 46 -7.1 19.2
16:35 1023 30.21 852 25.16 3.2 37.8 47 -7.1 19.2
16:40 1023 30.21 852 25.16 3.2 37.7 46 -7.3 18.9
16:45 1023 30.21 852 25.16 3.1 37.5 47 -7.2 19
16:50 1023 30.21 852 25.16 2.8 37 47 -7.5 18.4
16:55 1023 30.21 852 25.16 2.6 36.6 48 -7.4 18.7
17:00 1023 30.21 852 25.16 2.4 36.3 50 -7.1 19.3
17:05 1023 30.21 852 25.16 2.2 36 50 -7.3 18.9
17:10 1023 30.21 852 25.16 2 35.6 49 -7.7 18.2
17:15 1023 30.21 852 25.16 1.9 35.4 49 -7.8 18
17:20 1023 30.21 852 25.16 1.8 35.2 50 -7.6 18.3
17:25 1023 30.21 852 25.16 1.7 35 49 -7.9 17.7
17:30 1023 30.21 852 25.16 1.6 34.9 49 -8 17.6
17:35 1023 30.21 852 25.16 1.5 34.7 50 -7.9 17.8
17:40 1023 30.21 852 25.16 1.4 34.5 49 -8.1 17.4
17:45 1023 30.21 852 25.16 1.5 34.7 48 -8.4 17
17:50 1023 30.21 852 25.16 1.4 34.4 49 -8.2 17.2
17:55 1023 30.21 852 25.16 1.2 34.2 48 -8.5 16.7
18:00 1023 30.21 852 25.16 1.1 33.9 49 -8.5 16.7
18:05 1023 30.21 852 25.16 1 33.8 49 -8.6 16.6
18:10 1023 30.21 852 25.16 1 33.9 48 -8.7 16.3
18:15 1023 30.21 852 25.16 0.9 33.7 48 -8.8 16.1
18:20 1023 30.21 852 25.16 0.9 33.6 48 -8.8 16.1
18:25 1023 30.21 852 25.16 0.8 33.5 48 -8.9 16
18:30 1023 30.21 852 25.16 0.8 33.4 47 -9.3 15.3
18:35 1023 30.21 853 25.19 0.7 33.3 47 -9.3 15.3
18:40 1023 30.21 853 25.19 0.7 33.2 47 -9.4 15.1
18:45 1023 30.21 853 25.19 0.7 33.2 46 -9.7 14.6
18:50 1024 30.24 853 25.19 0.8 33.4 47 -9.4 15
18:55 1024 30.24 853 25.19 0.8 33.5 47 -9.3 15.3
19:00 1024 30.24 853 25.19 0.8 33.4 45 -9.8 14.4
19:05 1024 30.24 853 25.19 0.8 33.4 46 -9.7 14.5
19:10 1024 30.24 853 25.19 0.9 33.6 45 -9.8 14.3
19:15 1024 30.24 853 25.19 1 33.8 45 -9.7 14.5
19:20 1024 30.24 853 25.19 1 33.8 46 -9.4 15.1
19:25 1024 30.24 853 25.19 1 33.7 46 -9.4 15.1
19:30 1024 30.24 853 25.19 0.9 33.5 46 -9.4 15
19:35 1024 30.24 853 25.19 0.9 33.6 46 -9.5 14.9
19:40 1024 30.24 853 25.19 0.9 33.7 44 -9.9 14.2
19:45 1024 30.24 853 25.19 0.9 33.6 45 -9.9 14.2
19:50 1024 30.24 853 25.19 1 33.7 46 -9.5 14.8
19:55 1024 30.24 854 25.22 1 33.8 46 -9.3 15.2
20:00 1024 30.24 854 25.22 1 33.7 47 -9.2 15.5
20:05 1024 30.24 854 25.22 1 33.8 47 -9.1 15.6
20:10 1024 30.24 854 25.22 1 33.8 47 -9 15.7
20:15 1025 30.27 854 25.22 1 33.7 47 -9.1 15.6
20:20 1025 30.27 854 25.22 1 33.7 47 -9.3 15.3
20:25 1025 30.27 854 25.22 1 33.8 47 -9.1 15.6
20:30 1025 30.27 854 25.22 1 33.8 48 -8.9 15.9
20:35 1025 30.27 854 25.22 1 33.9 47 -9 15.8
20:40 1025 30.27 854 25.22 1 33.7 47 -9 15.7
20:45 1025 30.27 854 25.22 0.9 33.7 48 -9 15.8
20:50 1025 30.27 854 25.22 0.9 33.7 46 -9.3 15.3
20:55 1025 30.27 854 25.22 1 33.7 47 -9.1 15.6
21:00 1025 30.27 854 25.22 0.9 33.6 47 -9.2 15.5
21:05 1025 30.27 854 25.22 0.9 33.5 48 -9 15.7
21:10 1025 30.27 854 25.22 0.7 33.3 49 -8.9 16
21:15 1025 30.27 854 25.22 0.5 33 50 -8.7 16.4
21:20 1025 30.27 854 25.22 0.2 32.4 51 -8.8 16.1
21:25 1025 30.27 854 25.22 0 32 51 -9 15.8
21:30 1025 30.27 854 25.22 -0 32 49 -9.5 14.8
21:35 1025 30.27 854 25.22 0 32.1 48 -9.7 14.5
21:40 1025 30.27 854 25.22 0.1 32.2 47 -9.9 14.2
21:45 1025 30.27 854 25.22 0 32.1 47 -9.9 14.1
21:50 1025 30.27 854 25.22 0.1 32.1 46 -10.3 13.5
21:55 1025 30.27 854 25.22 0.1 32.2 45 -10.4 13.3
22:00 1025 30.27 854 25.22 0.1 32.1 46 -10.2 13.6
22:05 1025 30.27 854 25.22 0.1 32.2 45 -10.5 13.2
22:10 1025 30.27 854 25.22 0.1 32.2 46 -10.2 13.7
22:15 1025 30.27 854 25.22 0 32 47 -10 14
22:20 1025 30.27 854 25.22 -0.1 31.8 47 -10.2 13.6
22:25 1025 30.27 854 25.22 -0.1 31.7 47 -10.1 13.9
22:30 1025 30.27 854 25.22 -0.2 31.7 47 -10.2 13.6
22:35 1025 30.27 854 25.22 -0.2 31.7 48 -9.9 14.1
22:40 1025 30.27 854 25.22 -0.2 31.6 48 -9.9 14.3
22:45 1025 30.27 854 25.22 -0.2 31.7 48 -10 14
22:50 1025 30.27 854 25.22 -0.1 31.9 48 -9.9 14.1
22:55 1025 30.27 854 25.22 -0 32 48 -9.9 14.2
23:00 1025 30.27 855 25.25 -0 32 47 -10 14
23:05 1025 30.27 855 25.25 -0 31.9 48 -9.8 14.3
23:10 1025 30.27 855 25.25 -0.1 31.9 48 -9.8 14.4
23:15 1026 30.3 855 25.25 -0.1 31.7 48 -9.9 14.1
23:20 1026 30.3 855 25.25 -0.3 31.5 48 -9.9 14.1
23:25 1025 30.27 855 25.25 -0.3 31.4 48 -10.1 13.9
23:30 1025 30.27 855 25.25 -0.2 31.6 48 -10 14
23:35 1025 30.27 855 25.25 -0.3 31.4 49 -9.9 14.2
23:40 1026 30.3 855 25.25 -0.5 31.2 50 -9.7 14.5
23:45 1026 30.3 855 25.25 -0.5 31.1 50 -9.8 14.4
23:50 1026 30.3 855 25.25 -0.5 31.1 49 -9.9 14.2
23:55 1026 30.3 855 25.25 -0.5 31.2 48 -10.1 13.9
24:00 1026 30.3 855 25.25 -0.3 31.5 48 -9.9 14.2